sensor_id;sensor_type;location;lat;lon;timestamp;P1;durP1;ratioP1;P2;durP2;ratioP2
75520;SDS011;64102;48.628;9.002;2023-06-10T00:02:10;8.70;;;2.20;;
75520;SDS011;64102;48.628;9.002;2023-06-10T00:04:36;9.70;;;2.35;;
75520;SDS011;64102;48.628;9.002;2023-06-10T00:07:04;8.55;;;2.28;;
75520;SDS011;64102;48.628;9.002;2023-06-10T00:09:36;9.55;;;2.78;;
75520;SDS011;64102;48.628;9.002;2023-06-10T00:12:03;8.93;;;2.78;;
75520;SDS011;64102;48.628;9.002;2023-06-10T00:14:33;9.20;;;2.53;;
75520;SDS011;64102;48.628;9.002;2023-06-10T00:16:59;9.20;;;2.38;;
75520;SDS011;64102;48.628;9.002;2023-06-10T00:19:24;9.07;;;2.45;;
75520;SDS011;64102;48.628;9.002;2023-06-10T00:21:55;10.27;;;2.30;;
75520;SDS011;64102;48.628;9.002;2023-06-10T00:24:21;9.65;;;2.60;;
75520;SDS011;64102;48.628;9.002;2023-06-10T00:26:47;9.25;;;2.53;;
75520;SDS011;64102;48.628;9.002;2023-06-10T00:29:12;9.63;;;2.70;;
75520;SDS011;64102;48.628;9.002;2023-06-10T00:31:38;9.05;;;2.33;;
75520;SDS011;64102;48.628;9.002;2023-06-10T00:34:04;9.60;;;2.03;;
75520;SDS011;64102;48.628;9.002;2023-06-10T00:36:29;11.67;;;2.50;;
75520;SDS011;64102;48.628;9.002;2023-06-10T00:38:55;9.15;;;2.40;;
75520;SDS011;64102;48.628;9.002;2023-06-10T00:41:21;8.93;;;2.22;;
75520;SDS011;64102;48.628;9.002;2023-06-10T00:43:46;11.50;;;2.28;;
75520;SDS011;64102;48.628;9.002;2023-06-10T00:46:12;8.65;;;2.47;;
75520;SDS011;64102;48.628;9.002;2023-06-10T00:48:39;9.10;;;2.47;;
75520;SDS011;64102;48.628;9.002;2023-06-10T00:51:06;8.52;;;1.92;;
75520;SDS011;64102;48.628;9.002;2023-06-10T00:53:34;9.48;;;2.67;;
75520;SDS011;64102;48.628;9.002;2023-06-10T00:56:04;10.95;;;2.70;;
75520;SDS011;64102;48.628;9.002;2023-06-10T00:58:30;8.00;;;2.00;;
75520;SDS011;64102;48.628;9.002;2023-06-10T01:00:56;10.70;;;2.65;;
75520;SDS011;64102;48.628;9.002;2023-06-10T01:03:22;11.52;;;2.50;;
75520;SDS011;64102;48.628;9.002;2023-06-10T01:05:49;9.90;;;2.72;;
75520;SDS011;64102;48.628;9.002;2023-06-10T01:11:20;8.60;;;2.30;;
75520;SDS011;64102;48.628;9.002;2023-06-10T01:13:49;9.73;;;2.67;;
75520;SDS011;64102;48.628;9.002;2023-06-10T01:16:17;10.95;;;2.40;;
75520;SDS011;64102;48.628;9.002;2023-06-10T01:18:44;9.50;;;2.22;;
75520;SDS011;64102;48.628;9.002;2023-06-10T01:21:13;10.07;;;2.47;;
75520;SDS011;64102;48.628;9.002;2023-06-10T01:23:52;11.02;;;2.53;;
75520;SDS011;64102;48.628;9.002;2023-06-10T01:26:21;9.02;;;2.15;;
75520;SDS011;64102;48.628;9.002;2023-06-10T01:32:12;8.73;;;1.90;;
75520;SDS011;64102;48.628;9.002;2023-06-10T01:34:42;8.55;;;2.15;;
75520;SDS011;64102;48.628;9.002;2023-06-10T01:37:08;9.48;;;2.08;;
75520;SDS011;64102;48.628;9.002;2023-06-10T01:39:36;8.32;;;1.98;;
75520;SDS011;64102;48.628;9.002;2023-06-10T01:42:02;9.75;;;2.15;;
75520;SDS011;64102;48.628;9.002;2023-06-10T01:44:29;7.55;;;1.80;;
75520;SDS011;64102;48.628;9.002;2023-06-10T01:46:55;9.40;;;2.07;;
75520;SDS011;64102;48.628;9.002;2023-06-10T01:49:20;8.07;;;2.00;;
75520;SDS011;64102;48.628;9.002;2023-06-10T01:51:47;7.93;;;1.92;;
75520;SDS011;64102;48.628;9.002;2023-06-10T01:54:12;7.93;;;1.90;;
75520;SDS011;64102;48.628;9.002;2023-06-10T01:56:37;8.40;;;2.00;;
75520;SDS011;64102;48.628;9.002;2023-06-10T01:59:03;8.67;;;2.27;;
75520;SDS011;64102;48.628;9.002;2023-06-10T02:01:28;7.30;;;1.60;;
75520;SDS011;64102;48.628;9.002;2023-06-10T02:03:54;10.00;;;2.20;;
75520;SDS011;64102;48.628;9.002;2023-06-10T02:06:19;9.63;;;2.57;;
75520;SDS011;64102;48.628;9.002;2023-06-10T02:08:45;8.93;;;1.98;;
75520;SDS011;64102;48.628;9.002;2023-06-10T02:11:10;9.43;;;2.30;;
75520;SDS011;64102;48.628;9.002;2023-06-10T02:13:35;9.23;;;2.33;;
75520;SDS011;64102;48.628;9.002;2023-06-10T02:16:03;10.00;;;2.17;;
75520;SDS011;64102;48.628;9.002;2023-06-10T02:18:28;9.57;;;1.98;;
75520;SDS011;64102;48.628;9.002;2023-06-10T02:20:54;10.02;;;2.70;;
75520;SDS011;64102;48.628;9.002;2023-06-10T02:23:19;10.70;;;2.40;;
75520;SDS011;64102;48.628;9.002;2023-06-10T02:25:44;8.35;;;1.90;;
75520;SDS011;64102;48.628;9.002;2023-06-10T02:28:10;9.20;;;2.58;;
75520;SDS011;64102;48.628;9.002;2023-06-10T02:30:36;9.15;;;2.45;;
75520;SDS011;64102;48.628;9.002;2023-06-10T02:33:05;9.15;;;2.30;;
75520;SDS011;64102;48.628;9.002;2023-06-10T02:35:30;8.48;;;1.92;;
75520;SDS011;64102;48.628;9.002;2023-06-10T02:37:55;9.03;;;2.20;;
75520;SDS011;64102;48.628;9.002;2023-06-10T02:40:21;9.93;;;2.57;;
75520;SDS011;64102;48.628;9.002;2023-06-10T02:42:46;8.60;;;2.17;;
75520;SDS011;64102;48.628;9.002;2023-06-10T02:45:11;9.43;;;2.47;;
75520;SDS011;64102;48.628;9.002;2023-06-10T02:47:37;11.50;;;2.47;;
75520;SDS011;64102;48.628;9.002;2023-06-10T02:50:03;8.85;;;2.10;;
75520;SDS011;64102;48.628;9.002;2023-06-10T02:52:29;10.88;;;2.33;;
75520;SDS011;64102;48.628;9.002;2023-06-10T02:54:55;10.32;;;2.80;;
75520;SDS011;64102;48.628;9.002;2023-06-10T02:57:20;10.43;;;2.73;;
75520;SDS011;64102;48.628;9.002;2023-06-10T02:59:45;11.90;;;2.50;;
75520;SDS011;64102;48.628;9.002;2023-06-10T03:02:11;10.32;;;2.58;;
75520;SDS011;64102;48.628;9.002;2023-06-10T03:04:37;9.00;;;2.40;;
75520;SDS011;64102;48.628;9.002;2023-06-10T03:07:03;9.65;;;2.28;;
75520;SDS011;64102;48.628;9.002;2023-06-10T03:09:28;9.52;;;1.98;;
75520;SDS011;64102;48.628;9.002;2023-06-10T03:11:54;9.15;;;2.53;;
75520;SDS011;64102;48.628;9.002;2023-06-10T03:14:19;11.20;;;2.80;;
75520;SDS011;64102;48.628;9.002;2023-06-10T03:16:45;8.35;;;2.08;;
75520;SDS011;64102;48.628;9.002;2023-06-10T03:19:10;8.97;;;2.00;;
75520;SDS011;64102;48.628;9.002;2023-06-10T03:21:35;9.50;;;2.03;;
75520;SDS011;64102;48.628;9.002;2023-06-10T03:24:02;9.63;;;2.40;;
75520;SDS011;64102;48.628;9.002;2023-06-10T03:26:28;9.30;;;2.10;;
75520;SDS011;64102;48.628;9.002;2023-06-10T03:28:53;9.20;;;2.35;;
75520;SDS011;64102;48.628;9.002;2023-06-10T03:31:18;9.40;;;2.13;;
75520;SDS011;64102;48.628;9.002;2023-06-10T03:33:44;9.18;;;2.13;;
75520;SDS011;64102;48.628;9.002;2023-06-10T03:36:09;9.70;;;2.50;;
75520;SDS011;64102;48.628;9.002;2023-06-10T03:38:35;9.93;;;2.20;;
75520;SDS011;64102;48.628;9.002;2023-06-10T03:41:01;8.57;;;2.42;;
75520;SDS011;64102;48.628;9.002;2023-06-10T03:43:26;10.80;;;2.30;;
75520;SDS011;64102;48.628;9.002;2023-06-10T03:45:52;9.73;;;2.08;;
75520;SDS011;64102;48.628;9.002;2023-06-10T03:48:18;9.35;;;2.08;;
75520;SDS011;64102;48.628;9.002;2023-06-10T03:50:43;9.95;;;2.70;;
75520;SDS011;64102;48.628;9.002;2023-06-10T03:53:09;10.85;;;2.50;;
75520;SDS011;64102;48.628;9.002;2023-06-10T03:55:34;10.10;;;2.35;;
75520;SDS011;64102;48.628;9.002;2023-06-10T03:58:01;11.50;;;2.50;;
75520;SDS011;64102;48.628;9.002;2023-06-10T04:00:26;8.30;;;2.15;;
75520;SDS011;64102;48.628;9.002;2023-06-10T04:02:52;9.10;;;2.23;;
75520;SDS011;64102;48.628;9.002;2023-06-10T04:05:18;8.87;;;2.07;;
75520;SDS011;64102;48.628;9.002;2023-06-10T04:07:47;8.90;;;2.33;;
75520;SDS011;64102;48.628;9.002;2023-06-10T04:10:13;8.52;;;2.33;;
75520;SDS011;64102;48.628;9.002;2023-06-10T04:12:39;8.55;;;2.55;;
75520;SDS011;64102;48.628;9.002;2023-06-10T04:15:05;9.20;;;2.53;;
75520;SDS011;64102;48.628;9.002;2023-06-10T04:17:31;10.25;;;2.17;;
75520;SDS011;64102;48.628;9.002;2023-06-10T04:19:56;9.43;;;2.58;;
75520;SDS011;64102;48.628;9.002;2023-06-10T04:22:23;10.00;;;2.50;;
75520;SDS011;64102;48.628;9.002;2023-06-10T04:24:48;9.23;;;2.38;;
75520;SDS011;64102;48.628;9.002;2023-06-10T04:27:14;9.17;;;2.47;;
75520;SDS011;64102;48.628;9.002;2023-06-10T04:29:39;8.27;;;2.15;;
75520;SDS011;64102;48.628;9.002;2023-06-10T04:32:05;8.50;;;1.92;;
75520;SDS011;64102;48.628;9.002;2023-06-10T04:34:32;8.48;;;1.85;;
75520;SDS011;64102;48.628;9.002;2023-06-10T04:36:58;8.80;;;2.40;;
75520;SDS011;64102;48.628;9.002;2023-06-10T04:39:23;9.55;;;2.20;;
75520;SDS011;64102;48.628;9.002;2023-06-10T04:41:49;9.45;;;2.53;;
75520;SDS011;64102;48.628;9.002;2023-06-10T04:44:14;8.85;;;2.15;;
75520;SDS011;64102;48.628;9.002;2023-06-10T04:46:40;8.55;;;1.65;;
75520;SDS011;64102;48.628;9.002;2023-06-10T04:49:05;9.20;;;1.87;;
75520;SDS011;64102;48.628;9.002;2023-06-10T04:51:31;8.60;;;2.03;;
75520;SDS011;64102;48.628;9.002;2023-06-10T04:53:57;8.25;;;2.03;;
75520;SDS011;64102;48.628;9.002;2023-06-10T04:56:23;8.63;;;2.05;;
75520;SDS011;64102;48.628;9.002;2023-06-10T04:58:49;8.18;;;2.15;;
75520;SDS011;64102;48.628;9.002;2023-06-10T05:01:14;9.02;;;2.03;;
75520;SDS011;64102;48.628;9.002;2023-06-10T05:03:40;9.23;;;2.38;;
75520;SDS011;64102;48.628;9.002;2023-06-10T05:06:05;9.43;;;2.13;;
75520;SDS011;64102;48.628;9.002;2023-06-10T05:08:30;9.57;;;2.07;;
75520;SDS011;64102;48.628;9.002;2023-06-10T05:10:55;8.73;;;2.17;;
75520;SDS011;64102;48.628;9.002;2023-06-10T05:13:21;9.10;;;2.00;;
75520;SDS011;64102;48.628;9.002;2023-06-10T05:15:46;9.27;;;3.03;;
75520;SDS011;64102;48.628;9.002;2023-06-10T05:18:12;10.77;;;2.55;;
75520;SDS011;64102;48.628;9.002;2023-06-10T05:20:37;9.43;;;2.28;;
75520;SDS011;64102;48.628;9.002;2023-06-10T05:23:03;9.80;;;3.00;;
75520;SDS011;64102;48.628;9.002;2023-06-10T05:25:30;9.38;;;1.98;;
75520;SDS011;64102;48.628;9.002;2023-06-10T05:27:55;8.45;;;1.92;;
75520;SDS011;64102;48.628;9.002;2023-06-10T05:30:20;7.82;;;1.58;;
75520;SDS011;64102;48.628;9.002;2023-06-10T05:32:46;7.15;;;1.42;;
75520;SDS011;64102;48.628;9.002;2023-06-10T05:35:11;7.70;;;1.57;;
75520;SDS011;64102;48.628;9.002;2023-06-10T05:37:37;8.33;;;1.53;;
75520;SDS011;64102;48.628;9.002;2023-06-10T05:40:02;7.72;;;1.40;;
75520;SDS011;64102;48.628;9.002;2023-06-10T05:42:29;7.60;;;1.60;;
75520;SDS011;64102;48.628;9.002;2023-06-10T05:44:55;7.85;;;1.40;;
75520;SDS011;64102;48.628;9.002;2023-06-10T05:47:20;7.78;;;1.05;;
75520;SDS011;64102;48.628;9.002;2023-06-10T05:49:45;8.17;;;1.80;;
75520;SDS011;64102;48.628;9.002;2023-06-10T05:52:13;7.65;;;1.33;;
75520;SDS011;64102;48.628;9.002;2023-06-10T05:54:38;7.72;;;1.92;;
75520;SDS011;64102;48.628;9.002;2023-06-10T05:57:04;8.27;;;1.20;;
75520;SDS011;64102;48.628;9.002;2023-06-10T05:59:30;8.02;;;1.30;;
75520;SDS011;64102;48.628;9.002;2023-06-10T06:01:56;7.00;;;1.33;;
75520;SDS011;64102;48.628;9.002;2023-06-10T06:04:21;7.30;;;1.63;;
75520;SDS011;64102;48.628;9.002;2023-06-10T06:06:46;7.97;;;1.60;;
75520;SDS011;64102;48.628;9.002;2023-06-10T06:09:12;7.63;;;1.77;;
75520;SDS011;64102;48.628;9.002;2023-06-10T06:11:37;7.97;;;1.77;;
75520;SDS011;64102;48.628;9.002;2023-06-10T06:14:03;7.75;;;1.80;;
75520;SDS011;64102;48.628;9.002;2023-06-10T06:16:28;8.10;;;1.90;;
75520;SDS011;64102;48.628;9.002;2023-06-10T06:18:53;9.90;;;2.43;;
75520;SDS011;64102;48.628;9.002;2023-06-10T06:21:19;6.85;;;1.80;;
75520;SDS011;64102;48.628;9.002;2023-06-10T06:23:44;7.13;;;1.97;;
75520;SDS011;64102;48.628;9.002;2023-06-10T06:26:09;7.33;;;2.30;;
75520;SDS011;64102;48.628;9.002;2023-06-10T06:28:35;8.77;;;2.63;;
75520;SDS011;64102;48.628;9.002;2023-06-10T06:31:00;7.53;;;2.00;;
75520;SDS011;64102;48.628;9.002;2023-06-10T06:33:26;8.88;;;2.67;;
75520;SDS011;64102;48.628;9.002;2023-06-10T06:35:51;7.65;;;2.22;;
75520;SDS011;64102;48.628;9.002;2023-06-10T06:38:17;7.93;;;2.40;;
75520;SDS011;64102;48.628;9.002;2023-06-10T06:40:42;8.23;;;2.30;;
75520;SDS011;64102;48.628;9.002;2023-06-10T06:43:07;7.23;;;2.13;;
75520;SDS011;64102;48.628;9.002;2023-06-10T06:45:33;8.10;;;3.03;;
75520;SDS011;64102;48.628;9.002;2023-06-10T06:47:59;7.30;;;2.30;;
75520;SDS011;64102;48.628;9.002;2023-06-10T06:50:24;7.57;;;2.67;;
75520;SDS011;64102;48.628;9.002;2023-06-10T06:52:49;7.97;;;2.87;;
75520;SDS011;64102;48.628;9.002;2023-06-10T06:55:15;8.37;;;1.97;;
75520;SDS011;64102;48.628;9.002;2023-06-10T06:57:40;7.05;;;2.25;;
75520;SDS011;64102;48.628;9.002;2023-06-10T07:00:06;7.95;;;2.47;;
75520;SDS011;64102;48.628;9.002;2023-06-10T07:02:34;8.30;;;2.60;;
75520;SDS011;64102;48.628;9.002;2023-06-10T07:05:00;8.90;;;3.20;;
75520;SDS011;64102;48.628;9.002;2023-06-10T07:07:25;10.50;;;3.00;;
75520;SDS011;64102;48.628;9.002;2023-06-10T07:09:50;8.07;;;2.57;;
75520;SDS011;64102;48.628;9.002;2023-06-10T07:12:16;8.13;;;3.07;;
75520;SDS011;64102;48.628;9.002;2023-06-10T07:14:42;7.90;;;3.58;;
75520;SDS011;64102;48.628;9.002;2023-06-10T07:17:08;8.63;;;4.35;;
75520;SDS011;64102;48.628;9.002;2023-06-10T07:19:33;7.55;;;3.05;;
75520;SDS011;64102;48.628;9.002;2023-06-10T07:21:59;7.97;;;3.17;;
75520;SDS011;64102;48.628;9.002;2023-06-10T07:24:24;7.68;;;2.88;;
75520;SDS011;64102;48.628;9.002;2023-06-10T07:26:50;8.27;;;3.17;;
75520;SDS011;64102;48.628;9.002;2023-06-10T07:29:15;7.68;;;2.70;;
75520;SDS011;64102;48.628;9.002;2023-06-10T07:31:41;8.32;;;2.95;;
75520;SDS011;64102;48.628;9.002;2023-06-10T07:34:07;7.97;;;4.47;;
75520;SDS011;64102;48.628;9.002;2023-06-10T07:36:33;9.02;;;4.30;;
75520;SDS011;64102;48.628;9.002;2023-06-10T07:38:58;8.00;;;2.50;;
75520;SDS011;64102;48.628;9.002;2023-06-10T07:41:23;7.72;;;2.95;;
75520;SDS011;64102;48.628;9.002;2023-06-10T07:43:50;7.03;;;1.95;;
75520;SDS011;64102;48.628;9.002;2023-06-10T07:46:19;8.15;;;2.58;;
75520;SDS011;64102;48.628;9.002;2023-06-10T07:48:48;7.50;;;2.63;;
75520;SDS011;64102;48.628;9.002;2023-06-10T07:51:14;7.70;;;2.17;;
75520;SDS011;64102;48.628;9.002;2023-06-10T07:53:40;8.35;;;2.50;;
75520;SDS011;64102;48.628;9.002;2023-06-10T07:56:06;8.02;;;3.00;;
75520;SDS011;64102;48.628;9.002;2023-06-10T07:58:31;6.93;;;2.13;;
75520;SDS011;64102;48.628;9.002;2023-06-10T08:00:56;7.13;;;2.37;;
75520;SDS011;64102;48.628;9.002;2023-06-10T08:03:22;7.63;;;2.33;;
75520;SDS011;64102;48.628;9.002;2023-06-10T08:05:47;8.20;;;2.17;;
75520;SDS011;64102;48.628;9.002;2023-06-10T08:08:12;6.72;;;3.10;;
75520;SDS011;64102;48.628;9.002;2023-06-10T08:10:38;6.97;;;1.98;;
75520;SDS011;64102;48.628;9.002;2023-06-10T08:13:03;7.25;;;2.78;;
75520;SDS011;64102;48.628;9.002;2023-06-10T08:15:29;7.18;;;2.42;;
75520;SDS011;64102;48.628;9.002;2023-06-10T08:17:54;6.80;;;1.92;;
75520;SDS011;64102;48.628;9.002;2023-06-10T08:20:21;7.35;;;2.08;;
75520;SDS011;64102;48.628;9.002;2023-06-10T08:22:47;7.88;;;2.47;;
75520;SDS011;64102;48.628;9.002;2023-06-10T08:25:12;6.30;;;2.17;;
75520;SDS011;64102;48.628;9.002;2023-06-10T08:27:38;6.97;;;2.28;;
75520;SDS011;64102;48.628;9.002;2023-06-10T08:30:03;7.75;;;2.78;;
75520;SDS011;64102;48.628;9.002;2023-06-10T08:32:29;6.78;;;2.47;;
75520;SDS011;64102;48.628;9.002;2023-06-10T08:34:54;6.57;;;2.28;;
75520;SDS011;64102;48.628;9.002;2023-06-10T08:37:20;6.43;;;2.77;;
75520;SDS011;64102;48.628;9.002;2023-06-10T08:39:45;7.57;;;3.42;;
75520;SDS011;64102;48.628;9.002;2023-06-10T08:42:13;7.20;;;2.90;;
75520;SDS011;64102;48.628;9.002;2023-06-10T08:45:03;7.07;;;2.50;;
75520;SDS011;64102;48.628;9.002;2023-06-10T08:47:30;7.32;;;2.58;;
75520;SDS011;64102;48.628;9.002;2023-06-10T08:50:03;6.93;;;2.35;;
75520;SDS011;64102;48.628;9.002;2023-06-10T08:52:34;7.85;;;3.95;;
75520;SDS011;64102;48.628;9.002;2023-06-10T08:55:08;8.13;;;3.65;;
75520;SDS011;64102;48.628;9.002;2023-06-10T08:57:36;7.18;;;3.17;;
75520;SDS011;64102;48.628;9.002;2023-06-10T09:00:02;7.53;;;2.90;;
75520;SDS011;64102;48.628;9.002;2023-06-10T09:02:28;7.63;;;2.95;;
75520;SDS011;64102;48.628;9.002;2023-06-10T09:04:56;6.80;;;2.53;;
75520;SDS011;64102;48.628;9.002;2023-06-10T09:07:24;7.40;;;3.30;;
75520;SDS011;64102;48.628;9.002;2023-06-10T09:09:50;6.68;;;2.70;;
75520;SDS011;64102;48.628;9.002;2023-06-10T09:12:19;7.63;;;3.92;;
75520;SDS011;64102;48.628;9.002;2023-06-10T09:14:44;7.10;;;3.28;;
75520;SDS011;64102;48.628;9.002;2023-06-10T09:17:10;7.50;;;3.50;;
75520;SDS011;64102;48.628;9.002;2023-06-10T09:19:35;7.63;;;3.63;;
75520;SDS011;64102;48.628;9.002;2023-06-10T09:22:03;7.55;;;3.78;;
75520;SDS011;64102;48.628;9.002;2023-06-10T09:24:29;8.18;;;3.17;;
75520;SDS011;64102;48.628;9.002;2023-06-10T09:27:07;6.82;;;3.83;;
75520;SDS011;64102;48.628;9.002;2023-06-10T09:29:54;7.88;;;4.28;;
75520;SDS011;64102;48.628;9.002;2023-06-10T09:32:19;6.72;;;3.55;;
75520;SDS011;64102;48.628;9.002;2023-06-10T09:34:45;7.68;;;4.00;;
75520;SDS011;64102;48.628;9.002;2023-06-10T09:37:11;6.72;;;2.90;;
75520;SDS011;64102;48.628;9.002;2023-06-10T09:39:38;7.38;;;2.58;;
75520;SDS011;64102;48.628;9.002;2023-06-10T09:42:15;7.53;;;3.95;;
75520;SDS011;64102;48.628;9.002;2023-06-10T09:44:46;6.63;;;3.55;;
75520;SDS011;64102;48.628;9.002;2023-06-10T09:47:19;8.02;;;4.70;;
75520;SDS011;64102;48.628;9.002;2023-06-10T09:49:48;7.68;;;4.22;;
75520;SDS011;64102;48.628;9.002;2023-06-10T09:52:24;8.20;;;5.10;;
75520;SDS011;64102;48.628;9.002;2023-06-10T09:54:51;8.07;;;5.93;;
75520;SDS011;64102;48.628;9.002;2023-06-10T09:57:17;7.75;;;6.13;;
75520;SDS011;64102;48.628;9.002;2023-06-10T09:59:43;7.50;;;4.68;;
75520;SDS011;64102;48.628;9.002;2023-06-10T10:02:16;7.07;;;3.88;;
75520;SDS011;64102;48.628;9.002;2023-06-10T10:04:43;6.45;;;3.40;;
75520;SDS011;64102;48.628;9.002;2023-06-10T10:07:09;6.93;;;3.15;;
75520;SDS011;64102;48.628;9.002;2023-06-10T10:09:39;6.20;;;2.95;;
75520;SDS011;64102;48.628;9.002;2023-06-10T10:12:09;6.45;;;3.83;;
75520;SDS011;64102;48.628;9.002;2023-06-10T10:14:36;6.75;;;3.38;;
75520;SDS011;64102;48.628;9.002;2023-06-10T10:17:04;6.47;;;2.63;;
75520;SDS011;64102;48.628;9.002;2023-06-10T10:19:32;7.10;;;5.43;;
75520;SDS011;64102;48.628;9.002;2023-06-10T10:22:08;7.03;;;3.72;;
75520;SDS011;64102;48.628;9.002;2023-06-10T10:24:42;6.38;;;3.80;;
75520;SDS011;64102;48.628;9.002;2023-06-10T10:27:17;7.18;;;3.63;;
75520;SDS011;64102;48.628;9.002;2023-06-10T10:29:48;7.00;;;3.53;;
75520;SDS011;64102;48.628;9.002;2023-06-10T10:32:18;7.20;;;3.28;;
75520;SDS011;64102;48.628;9.002;2023-06-10T10:34:50;6.43;;;3.78;;
75520;SDS011;64102;48.628;9.002;2023-06-10T10:37:26;6.75;;;2.05;;
75520;SDS011;64102;48.628;9.002;2023-06-10T10:39:51;6.03;;;1.40;;
75520;SDS011;64102;48.628;9.002;2023-06-10T10:42:17;6.25;;;1.58;;
75520;SDS011;64102;48.628;9.002;2023-06-10T10:44:43;7.00;;;1.70;;
75520;SDS011;64102;48.628;9.002;2023-06-10T10:47:09;6.97;;;2.95;;
75520;SDS011;64102;48.628;9.002;2023-06-10T10:49:37;9.15;;;3.22;;
75520;SDS011;64102;48.628;9.002;2023-06-10T10:52:04;6.63;;;1.60;;
75520;SDS011;64102;48.628;9.002;2023-06-10T10:54:34;7.30;;;2.25;;
75520;SDS011;64102;48.628;9.002;2023-06-10T10:59:46;8.18;;;3.95;;
75520;SDS011;64102;48.628;9.002;2023-06-10T11:05:05;7.03;;;2.80;;
75520;SDS011;64102;48.628;9.002;2023-06-10T11:07:32;6.43;;;2.03;;
75520;SDS011;64102;48.628;9.002;2023-06-10T11:10:00;7.45;;;3.22;;
75520;SDS011;64102;48.628;9.002;2023-06-10T11:15:19;6.55;;;2.85;;
75520;SDS011;64102;48.628;9.002;2023-06-10T11:23:42;6.72;;;2.97;;
75520;SDS011;64102;48.628;9.002;2023-06-10T11:31:31;7.18;;;4.15;;
75520;SDS011;64102;48.628;9.002;2023-06-10T11:36:24;7.47;;;4.18;;
75520;SDS011;64102;48.628;9.002;2023-06-10T11:38:55;8.02;;;6.55;;
75520;SDS011;64102;48.628;9.002;2023-06-10T11:41:24;8.07;;;5.68;;
75520;SDS011;64102;48.628;9.002;2023-06-10T11:43:51;7.68;;;4.75;;
75520;SDS011;64102;48.628;9.002;2023-06-10T11:46:17;7.55;;;5.20;;
75520;SDS011;64102;48.628;9.002;2023-06-10T11:48:52;7.13;;;2.95;;
75520;SDS011;64102;48.628;9.002;2023-06-10T11:53:44;7.88;;;3.70;;
75520;SDS011;64102;48.628;9.002;2023-06-10T11:56:13;8.45;;;3.83;;
75520;SDS011;64102;48.628;9.002;2023-06-10T11:58:40;6.13;;;2.22;;
75520;SDS011;64102;48.628;9.002;2023-06-10T12:01:10;7.40;;;3.75;;
75520;SDS011;64102;48.628;9.002;2023-06-10T12:03:38;6.93;;;3.75;;
75520;SDS011;64102;48.628;9.002;2023-06-10T12:06:04;8.20;;;5.10;;
75520;SDS011;64102;48.628;9.002;2023-06-10T12:08:31;8.15;;;6.30;;
75520;SDS011;64102;48.628;9.002;2023-06-10T12:10:58;6.85;;;4.68;;
75520;SDS011;64102;48.628;9.002;2023-06-10T12:13:27;7.72;;;5.13;;
75520;SDS011;64102;48.628;9.002;2023-06-10T12:15:53;7.53;;;4.93;;
75520;SDS011;64102;48.628;9.002;2023-06-10T12:18:22;8.23;;;6.15;;
75520;SDS011;64102;48.628;9.002;2023-06-10T12:20:48;6.78;;;3.13;;
75520;SDS011;64102;48.628;9.002;2023-06-10T12:23:16;7.18;;;3.90;;
75520;SDS011;64102;48.628;9.002;2023-06-10T12:25:49;7.28;;;4.75;;
75520;SDS011;64102;48.628;9.002;2023-06-10T12:30:50;7.40;;;4.28;;
75520;SDS011;64102;48.628;9.002;2023-06-10T12:33:19;6.88;;;3.17;;
75520;SDS011;64102;48.628;9.002;2023-06-10T12:35:49;7.68;;;6.88;;
75520;SDS011;64102;48.628;9.002;2023-06-10T12:38:23;6.90;;;4.95;;
75520;SDS011;64102;48.628;9.002;2023-06-10T12:40:50;6.53;;;4.05;;
75520;SDS011;64102;48.628;9.002;2023-06-10T12:43:19;5.20;;;2.05;;
75520;SDS011;64102;48.628;9.002;2023-06-10T12:45:46;6.90;;;2.55;;
75520;SDS011;64102;48.628;9.002;2023-06-10T12:50:42;7.13;;;4.07;;
75520;SDS011;64102;48.628;9.002;2023-06-10T12:53:09;7.25;;;5.53;;
75520;SDS011;64102;48.628;9.002;2023-06-10T12:55:36;7.35;;;5.85;;
75520;SDS011;64102;48.628;9.002;2023-06-10T12:58:02;6.60;;;3.88;;
75520;SDS011;64102;48.628;9.002;2023-06-10T13:00:28;7.97;;;3.92;;
75520;SDS011;64102;48.628;9.002;2023-06-10T13:02:57;6.75;;;2.65;;
75520;SDS011;64102;48.628;9.002;2023-06-10T13:05:25;5.85;;;1.48;;
75520;SDS011;64102;48.628;9.002;2023-06-10T13:07:50;6.07;;;1.73;;
75520;SDS011;64102;48.628;9.002;2023-06-10T13:10:16;5.85;;;2.00;;
75520;SDS011;64102;48.628;9.002;2023-06-10T13:12:45;7.95;;;3.05;;
75520;SDS011;64102;48.628;9.002;2023-06-10T13:15:11;7.28;;;3.45;;
75520;SDS011;64102;48.628;9.002;2023-06-10T13:17:37;7.13;;;3.88;;
75520;SDS011;64102;48.628;9.002;2023-06-10T13:20:03;7.50;;;4.85;;
75520;SDS011;64102;48.628;9.002;2023-06-10T13:22:30;7.78;;;4.38;;
75520;SDS011;64102;48.628;9.002;2023-06-10T13:24:58;7.28;;;4.05;;
75520;SDS011;64102;48.628;9.002;2023-06-10T13:27:24;6.80;;;3.33;;
75520;SDS011;64102;48.628;9.002;2023-06-10T13:29:50;8.40;;;7.28;;
75520;SDS011;64102;48.628;9.002;2023-06-10T13:32:15;7.35;;;5.43;;
75520;SDS011;64102;48.628;9.002;2023-06-10T13:34:40;6.93;;;4.63;;
75520;SDS011;64102;48.628;9.002;2023-06-10T13:37:06;8.57;;;3.03;;
75520;SDS011;64102;48.628;9.002;2023-06-10T13:39:31;7.78;;;4.65;;
75520;SDS011;64102;48.628;9.002;2023-06-10T13:41:57;6.32;;;1.75;;
75520;SDS011;64102;48.628;9.002;2023-06-10T13:44:22;6.40;;;2.57;;
75520;SDS011;64102;48.628;9.002;2023-06-10T13:46:47;5.90;;;1.40;;
75520;SDS011;64102;48.628;9.002;2023-06-10T13:49:13;8.53;;;1.73;;
75520;SDS011;64102;48.628;9.002;2023-06-10T13:51:38;6.13;;;1.53;;
75520;SDS011;64102;48.628;9.002;2023-06-10T13:54:03;7.20;;;4.30;;
75520;SDS011;64102;48.628;9.002;2023-06-10T13:56:29;6.82;;;2.38;;
75520;SDS011;64102;48.628;9.002;2023-06-10T13:58:55;6.72;;;2.03;;
75520;SDS011;64102;48.628;9.002;2023-06-10T14:01:20;5.78;;;2.75;;
75520;SDS011;64102;48.628;9.002;2023-06-10T14:03:46;7.30;;;3.67;;
75520;SDS011;64102;48.628;9.002;2023-06-10T14:06:11;7.23;;;4.20;;
75520;SDS011;64102;48.628;9.002;2023-06-10T14:08:43;6.80;;;4.28;;
75520;SDS011;64102;48.628;9.002;2023-06-10T14:11:09;6.68;;;2.55;;
75520;SDS011;64102;48.628;9.002;2023-06-10T14:13:34;6.43;;;2.37;;
75520;SDS011;64102;48.628;9.002;2023-06-10T14:15:59;6.80;;;1.50;;
75520;SDS011;64102;48.628;9.002;2023-06-10T14:18:27;6.20;;;1.50;;
75520;SDS011;64102;48.628;9.002;2023-06-10T14:20:53;6.93;;;2.10;;
75520;SDS011;64102;48.628;9.002;2023-06-10T14:23:18;6.37;;;2.03;;
75520;SDS011;64102;48.628;9.002;2023-06-10T14:25:43;5.90;;;1.40;;
75520;SDS011;64102;48.628;9.002;2023-06-10T14:28:09;7.20;;;1.30;;
75520;SDS011;64102;48.628;9.002;2023-06-10T14:30:34;5.13;;;0.80;;
75520;SDS011;64102;48.628;9.002;2023-06-10T14:33:00;6.68;;;1.60;;
75520;SDS011;64102;48.628;9.002;2023-06-10T14:35:25;6.93;;;1.58;;
75520;SDS011;64102;48.628;9.002;2023-06-10T14:37:51;5.95;;;1.42;;
75520;SDS011;64102;48.628;9.002;2023-06-10T14:40:16;7.20;;;1.93;;
75520;SDS011;64102;48.628;9.002;2023-06-10T14:42:41;7.03;;;2.10;;
75520;SDS011;64102;48.628;9.002;2023-06-10T14:45:07;6.60;;;2.30;;
75520;SDS011;64102;48.628;9.002;2023-06-10T14:47:33;6.30;;;1.88;;
75520;SDS011;64102;48.628;9.002;2023-06-10T14:49:58;6.43;;;1.93;;
75520;SDS011;64102;48.628;9.002;2023-06-10T14:52:24;9.13;;;3.83;;
75520;SDS011;64102;48.628;9.002;2023-06-10T14:54:49;6.57;;;2.78;;
75520;SDS011;64102;48.628;9.002;2023-06-10T14:57:14;6.23;;;1.57;;
75520;SDS011;64102;48.628;9.002;2023-06-10T14:59:40;6.30;;;1.90;;
75520;SDS011;64102;48.628;9.002;2023-06-10T15:02:05;5.63;;;1.10;;
75520;SDS011;64102;48.628;9.002;2023-06-10T15:04:30;6.75;;;1.60;;
75520;SDS011;64102;48.628;9.002;2023-06-10T15:06:56;7.23;;;1.53;;
75520;SDS011;64102;48.628;9.002;2023-06-10T15:09:21;6.78;;;1.23;;
75520;SDS011;64102;48.628;9.002;2023-06-10T15:11:46;6.25;;;1.52;;
75520;SDS011;64102;48.628;9.002;2023-06-10T15:14:12;6.68;;;1.40;;
75520;SDS011;64102;48.628;9.002;2023-06-10T15:16:37;6.95;;;1.80;;
75520;SDS011;64102;48.628;9.002;2023-06-10T15:19:03;5.75;;;1.40;;